Washington, District of Columbia
Traffic Map
Current Weather Conditions
Washington, District of Columbia
Scattered Clouds
Scattered Clouds
93°
Feels Like: 94°
Wind Chill: 93° Ceiling: Unl
Heat Index: 94° Visibility: 10mi
Dew Point: 63° Wind: 8mph
Humidity: 37% Direction: 260° (W)
Pressure: 29.91in Gusts: 21mph
Raw Report DataKDCA 041752Z 26007G18KT 230V300 10SM SCT060 SCT200 34/17 A2991 RMK AO2 SLP130 T03390172 10350 20256 56007
Traffic Incident Summary
Active as of:
Severity:
Category:
InformationThere was an issue retrieving the traffic information for this location. Please try a different location or try again shortly.
Advertisements
Track Severe Weather on mobile